sensor_id;sensor_type;location;lat;lon;timestamp;P1;durP1;ratioP1;P2;durP2;ratioP2
28483;SDS011;15704;48.834;8.736;2022-12-18T00:01:19;102.80;;;34.88;;
28483;SDS011;15704;48.834;8.736;2022-12-18T00:03:47;61.10;;;24.00;;
28483;SDS011;15704;48.834;8.736;2022-12-18T00:06:18;47.13;;;18.35;;
28483;SDS011;15704;48.834;8.736;2022-12-18T00:08:45;46.90;;;17.33;;
28483;SDS011;15704;48.834;8.736;2022-12-18T00:11:16;47.08;;;17.45;;
28483;SDS011;15704;48.834;8.736;2022-12-18T00:13:45;42.85;;;17.42;;
28483;SDS011;15704;48.834;8.736;2022-12-18T00:16:13;45.67;;;18.27;;
28483;SDS011;15704;48.834;8.736;2022-12-18T00:18:42;40.75;;;17.35;;
28483;SDS011;15704;48.834;8.736;2022-12-18T00:21:09;39.22;;;16.63;;
28483;SDS011;15704;48.834;8.736;2022-12-18T00:23:38;46.38;;;17.50;;
28483;SDS011;15704;48.834;8.736;2022-12-18T00:26:07;45.50;;;16.83;;
28483;SDS011;15704;48.834;8.736;2022-12-18T00:28:41;45.88;;;16.92;;
28483;SDS011;15704;48.834;8.736;2022-12-18T00:31:10;77.57;;;28.17;;
28483;SDS011;15704;48.834;8.736;2022-12-18T00:33:41;66.60;;;26.02;;
28483;SDS011;15704;48.834;8.736;2022-12-18T00:38:41;75.47;;;25.30;;
28483;SDS011;15704;48.834;8.736;2022-12-18T00:41:08;42.40;;;18.02;;
28483;SDS011;15704;48.834;8.736;2022-12-18T00:43:37;48.92;;;17.60;;
28483;SDS011;15704;48.834;8.736;2022-12-18T00:46:05;44.90;;;17.60;;
28483;SDS011;15704;48.834;8.736;2022-12-18T00:48:32;49.28;;;18.92;;
28483;SDS011;15704;48.834;8.736;2022-12-18T00:50:59;45.80;;;16.58;;
28483;SDS011;15704;48.834;8.736;2022-12-18T00:53:25;41.13;;;15.95;;
28483;SDS011;15704;48.834;8.736;2022-12-18T00:55:52;39.00;;;16.25;;
28483;SDS011;15704;48.834;8.736;2022-12-18T00:58:19;46.17;;;17.73;;
28483;SDS011;15704;48.834;8.736;2022-12-18T01:00:45;46.05;;;17.42;;
28483;SDS011;15704;48.834;8.736;2022-12-18T01:03:13;38.78;;;16.73;;
28483;SDS011;15704;48.834;8.736;2022-12-18T01:05:41;72.35;;;23.42;;
28483;SDS011;15704;48.834;8.736;2022-12-18T01:08:08;68.55;;;26.27;;
28483;SDS011;15704;48.834;8.736;2022-12-18T01:10:35;73.13;;;27.65;;
28483;SDS011;15704;48.834;8.736;2022-12-18T01:13:02;96.53;;;33.10;;
28483;SDS011;15704;48.834;8.736;2022-12-18T01:15:28;78.57;;;26.50;;
28483;SDS011;15704;48.834;8.736;2022-12-18T01:17:55;52.08;;;20.20;;
28483;SDS011;15704;48.834;8.736;2022-12-18T01:20:22;42.65;;;17.67;;
28483;SDS011;15704;48.834;8.736;2022-12-18T01:22:48;48.58;;;18.67;;
28483;SDS011;15704;48.834;8.736;2022-12-18T01:25:15;42.65;;;17.80;;
28483;SDS011;15704;48.834;8.736;2022-12-18T01:27:42;42.88;;;16.80;;
28483;SDS011;15704;48.834;8.736;2022-12-18T01:30:09;37.20;;;16.55;;
28483;SDS011;15704;48.834;8.736;2022-12-18T01:32:36;46.28;;;17.70;;
28483;SDS011;15704;48.834;8.736;2022-12-18T01:35:02;40.70;;;16.73;;
28483;SDS011;15704;48.834;8.736;2022-12-18T01:37:29;43.00;;;17.02;;
28483;SDS011;15704;48.834;8.736;2022-12-18T01:39:56;47.42;;;18.38;;
28483;SDS011;15704;48.834;8.736;2022-12-18T01:42:23;43.42;;;17.60;;
28483;SDS011;15704;48.834;8.736;2022-12-18T01:50:05;79.40;;;26.13;;
28483;SDS011;15704;48.834;8.736;2022-12-18T01:52:45;45.22;;;19.00;;
28483;SDS011;15704;48.834;8.736;2022-12-18T01:55:15;46.83;;;18.38;;
28483;SDS011;15704;48.834;8.736;2022-12-18T01:57:45;42.15;;;16.70;;
28483;SDS011;15704;48.834;8.736;2022-12-18T02:00:15;37.83;;;16.33;;
28483;SDS011;15704;48.834;8.736;2022-12-18T02:02:47;38.47;;;16.67;;
28483;SDS011;15704;48.834;8.736;2022-12-18T02:05:16;39.38;;;17.73;;
28483;SDS011;15704;48.834;8.736;2022-12-18T02:11:14;38.53;;;15.60;;
28483;SDS011;15704;48.834;8.736;2022-12-18T02:13:43;42.05;;;16.70;;
28483;SDS011;15704;48.834;8.736;2022-12-18T02:16:24;39.60;;;15.38;;
28483;SDS011;15704;48.834;8.736;2022-12-18T02:22:24;45.85;;;19.02;;
28483;SDS011;15704;48.834;8.736;2022-12-18T02:25:12;48.42;;;20.48;;
28483;SDS011;15704;48.834;8.736;2022-12-18T02:27:47;58.42;;;23.45;;
28483;SDS011;15704;48.834;8.736;2022-12-18T02:30:17;56.00;;;19.27;;
28483;SDS011;15704;48.834;8.736;2022-12-18T02:32:46;37.33;;;16.10;;
28483;SDS011;15704;48.834;8.736;2022-12-18T02:35:25;42.20;;;16.88;;
28483;SDS011;15704;48.834;8.736;2022-12-18T02:37:55;49.58;;;17.88;;
28483;SDS011;15704;48.834;8.736;2022-12-18T02:40:24;48.17;;;18.35;;
28483;SDS011;15704;48.834;8.736;2022-12-18T02:42:53;41.85;;;16.20;;
28483;SDS011;15704;48.834;8.736;2022-12-18T02:45:20;45.65;;;18.50;;
28483;SDS011;15704;48.834;8.736;2022-12-18T02:47:48;38.83;;;15.02;;
28483;SDS011;15704;48.834;8.736;2022-12-18T02:50:27;40.40;;;16.77;;
28483;SDS011;15704;48.834;8.736;2022-12-18T03:00:49;45.60;;;19.55;;
28483;SDS011;15704;48.834;8.736;2022-12-18T03:03:26;39.58;;;17.98;;
28483;SDS011;15704;48.834;8.736;2022-12-18T03:06:00;51.83;;;19.42;;
28483;SDS011;15704;48.834;8.736;2022-12-18T03:08:39;38.17;;;16.73;;
28483;SDS011;15704;48.834;8.736;2022-12-18T03:11:10;36.15;;;15.02;;
28483;SDS011;15704;48.834;8.736;2022-12-18T03:13:43;33.95;;;14.98;;
28483;SDS011;15704;48.834;8.736;2022-12-18T03:16:22;40.15;;;16.00;;
28483;SDS011;15704;48.834;8.736;2022-12-18T03:18:56;39.72;;;15.43;;
28483;SDS011;15704;48.834;8.736;2022-12-18T03:21:45;38.50;;;15.88;;
28483;SDS011;15704;48.834;8.736;2022-12-18T03:24:15;40.15;;;16.48;;
28483;SDS011;15704;48.834;8.736;2022-12-18T03:26:46;41.50;;;16.00;;
28483;SDS011;15704;48.834;8.736;2022-12-18T03:29:18;37.33;;;16.90;;
28483;SDS011;15704;48.834;8.736;2022-12-18T03:34:21;44.92;;;19.25;;
28483;SDS011;15704;48.834;8.736;2022-12-18T03:36:52;41.17;;;18.10;;
28483;SDS011;15704;48.834;8.736;2022-12-18T03:39:19;49.58;;;19.85;;
28483;SDS011;15704;48.834;8.736;2022-12-18T03:41:51;40.72;;;18.50;;
28483;SDS011;15704;48.834;8.736;2022-12-18T03:49:50;44.42;;;19.10;;
28483;SDS011;15704;48.834;8.736;2022-12-18T03:52:28;45.05;;;17.38;;
28483;SDS011;15704;48.834;8.736;2022-12-18T03:54:59;39.80;;;17.60;;
28483;SDS011;15704;48.834;8.736;2022-12-18T03:57:29;40.30;;;17.77;;
28483;SDS011;15704;48.834;8.736;2022-12-18T04:00:09;42.55;;;17.85;;
28483;SDS011;15704;48.834;8.736;2022-12-18T04:02:53;40.70;;;16.77;;
28483;SDS011;15704;48.834;8.736;2022-12-18T04:05:22;41.90;;;16.02;;
28483;SDS011;15704;48.834;8.736;2022-12-18T04:07:50;43.97;;;18.60;;
28483;SDS011;15704;48.834;8.736;2022-12-18T04:10:20;46.03;;;17.42;;
28483;SDS011;15704;48.834;8.736;2022-12-18T04:12:47;49.90;;;17.35;;
28483;SDS011;15704;48.834;8.736;2022-12-18T04:15:14;44.92;;;18.80;;
28483;SDS011;15704;48.834;8.736;2022-12-18T04:17:43;35.58;;;15.00;;
28483;SDS011;15704;48.834;8.736;2022-12-18T04:20:14;44.03;;;16.23;;
28483;SDS011;15704;48.834;8.736;2022-12-18T04:22:42;35.50;;;15.68;;
28483;SDS011;15704;48.834;8.736;2022-12-18T04:25:09;52.47;;;17.88;;
28483;SDS011;15704;48.834;8.736;2022-12-18T04:27:36;40.17;;;17.73;;
28483;SDS011;15704;48.834;8.736;2022-12-18T04:30:03;47.80;;;17.08;;
28483;SDS011;15704;48.834;8.736;2022-12-18T04:32:30;40.15;;;17.20;;
28483;SDS011;15704;48.834;8.736;2022-12-18T04:34:57;38.92;;;15.25;;
28483;SDS011;15704;48.834;8.736;2022-12-18T04:37:23;42.33;;;15.93;;
28483;SDS011;15704;48.834;8.736;2022-12-18T04:39:50;37.88;;;16.27;;
28483;SDS011;15704;48.834;8.736;2022-12-18T04:42:17;37.40;;;15.93;;
28483;SDS011;15704;48.834;8.736;2022-12-18T04:44:44;40.65;;;16.75;;
28483;SDS011;15704;48.834;8.736;2022-12-18T04:47:10;37.35;;;15.65;;
28483;SDS011;15704;48.834;8.736;2022-12-18T04:49:37;40.38;;;16.10;;
28483;SDS011;15704;48.834;8.736;2022-12-18T04:52:04;39.72;;;16.13;;
28483;SDS011;15704;48.834;8.736;2022-12-18T04:54:31;30.95;;;14.77;;
28483;SDS011;15704;48.834;8.736;2022-12-18T04:56:58;35.25;;;15.55;;
28483;SDS011;15704;48.834;8.736;2022-12-18T04:59:24;38.67;;;16.80;;
28483;SDS011;15704;48.834;8.736;2022-12-18T05:01:51;32.92;;;14.80;;
28483;SDS011;15704;48.834;8.736;2022-12-18T05:04:18;32.30;;;14.10;;
28483;SDS011;15704;48.834;8.736;2022-12-18T05:06:45;34.30;;;14.38;;
28483;SDS011;15704;48.834;8.736;2022-12-18T05:09:12;32.45;;;13.93;;
28483;SDS011;15704;48.834;8.736;2022-12-18T05:11:39;30.98;;;13.40;;
28483;SDS011;15704;48.834;8.736;2022-12-18T05:14:06;31.42;;;14.60;;
28483;SDS011;15704;48.834;8.736;2022-12-18T05:16:33;34.40;;;14.90;;
28483;SDS011;15704;48.834;8.736;2022-12-18T05:19:00;32.75;;;14.07;;
28483;SDS011;15704;48.834;8.736;2022-12-18T05:21:27;42.65;;;15.35;;
28483;SDS011;15704;48.834;8.736;2022-12-18T05:23:53;35.88;;;14.63;;
28483;SDS011;15704;48.834;8.736;2022-12-18T05:26:20;34.92;;;13.48;;
28483;SDS011;15704;48.834;8.736;2022-12-18T05:28:47;34.53;;;13.50;;
28483;SDS011;15704;48.834;8.736;2022-12-18T05:31:14;34.15;;;14.73;;
28483;SDS011;15704;48.834;8.736;2022-12-18T05:33:41;38.78;;;14.45;;
28483;SDS011;15704;48.834;8.736;2022-12-18T05:36:09;31.08;;;12.98;;
28483;SDS011;15704;48.834;8.736;2022-12-18T05:38:37;38.90;;;15.98;;
28483;SDS011;15704;48.834;8.736;2022-12-18T05:41:05;39.20;;;14.40;;
28483;SDS011;15704;48.834;8.736;2022-12-18T05:43:34;37.53;;;14.02;;
28483;SDS011;15704;48.834;8.736;2022-12-18T05:46:03;37.13;;;14.68;;
28483;SDS011;15704;48.834;8.736;2022-12-18T05:48:31;32.78;;;14.20;;
28483;SDS011;15704;48.834;8.736;2022-12-18T05:51:03;35.97;;;14.25;;
28483;SDS011;15704;48.834;8.736;2022-12-18T05:53:35;35.13;;;14.32;;
28483;SDS011;15704;48.834;8.736;2022-12-18T05:56:04;30.95;;;12.75;;
28483;SDS011;15704;48.834;8.736;2022-12-18T05:58:32;31.90;;;12.82;;
28483;SDS011;15704;48.834;8.736;2022-12-18T06:01:05;31.50;;;13.45;;
28483;SDS011;15704;48.834;8.736;2022-12-18T06:03:37;29.80;;;12.23;;
28483;SDS011;15704;48.834;8.736;2022-12-18T06:06:12;36.53;;;13.40;;
28483;SDS011;15704;48.834;8.736;2022-12-18T06:08:42;36.08;;;13.63;;
28483;SDS011;15704;48.834;8.736;2022-12-18T06:11:12;36.10;;;13.98;;
28483;SDS011;15704;48.834;8.736;2022-12-18T06:13:39;38.55;;;14.70;;
28483;SDS011;15704;48.834;8.736;2022-12-18T06:16:07;36.10;;;14.05;;
28483;SDS011;15704;48.834;8.736;2022-12-18T06:18:34;43.10;;;14.80;;
28483;SDS011;15704;48.834;8.736;2022-12-18T06:21:01;44.50;;;15.05;;
28483;SDS011;15704;48.834;8.736;2022-12-18T06:23:28;44.55;;;15.45;;
28483;SDS011;15704;48.834;8.736;2022-12-18T06:25:54;45.05;;;14.55;;
28483;SDS011;15704;48.834;8.736;2022-12-18T06:28:21;50.35;;;16.92;;
28483;SDS011;15704;48.834;8.736;2022-12-18T06:30:48;45.22;;;15.40;;
28483;SDS011;15704;48.834;8.736;2022-12-18T06:33:15;47.42;;;17.55;;
28483;SDS011;15704;48.834;8.736;2022-12-18T06:35:42;48.53;;;17.85;;
28483;SDS011;15704;48.834;8.736;2022-12-18T06:38:09;53.55;;;16.02;;
28483;SDS011;15704;48.834;8.736;2022-12-18T06:40:37;61.20;;;19.08;;
28483;SDS011;15704;48.834;8.736;2022-12-18T06:43:05;57.90;;;18.30;;
28483;SDS011;15704;48.834;8.736;2022-12-18T06:45:32;50.88;;;18.13;;
28483;SDS011;15704;48.834;8.736;2022-12-18T06:47:59;55.80;;;17.35;;
28483;SDS011;15704;48.834;8.736;2022-12-18T06:50:27;52.40;;;18.45;;
28483;SDS011;15704;48.834;8.736;2022-12-18T06:52:53;65.00;;;19.55;;
28483;SDS011;15704;48.834;8.736;2022-12-18T06:55:21;56.63;;;17.60;;
28483;SDS011;15704;48.834;8.736;2022-12-18T06:57:48;46.95;;;17.90;;
28483;SDS011;15704;48.834;8.736;2022-12-18T07:00:15;57.83;;;19.17;;
28483;SDS011;15704;48.834;8.736;2022-12-18T07:02:42;56.92;;;18.90;;
28483;SDS011;15704;48.834;8.736;2022-12-18T07:05:09;59.08;;;17.90;;
28483;SDS011;15704;48.834;8.736;2022-12-18T07:07:36;52.03;;;17.92;;
28483;SDS011;15704;48.834;8.736;2022-12-18T07:10:03;58.60;;;19.63;;
28483;SDS011;15704;48.834;8.736;2022-12-18T07:12:30;46.08;;;17.83;;
28483;SDS011;15704;48.834;8.736;2022-12-18T07:14:57;63.65;;;18.77;;
28483;SDS011;15704;48.834;8.736;2022-12-18T07:17:23;50.05;;;16.60;;
28483;SDS011;15704;48.834;8.736;2022-12-18T07:19:50;60.25;;;17.63;;
28483;SDS011;15704;48.834;8.736;2022-12-18T07:22:17;41.78;;;16.30;;
28483;SDS011;15704;48.834;8.736;2022-12-18T07:24:44;55.90;;;19.67;;
28483;SDS011;15704;48.834;8.736;2022-12-18T07:27:10;49.50;;;17.45;;
28483;SDS011;15704;48.834;8.736;2022-12-18T07:29:37;48.45;;;17.38;;
28483;SDS011;15704;48.834;8.736;2022-12-18T07:32:04;53.03;;;17.42;;
28483;SDS011;15704;48.834;8.736;2022-12-18T07:34:31;54.67;;;19.00;;
28483;SDS011;15704;48.834;8.736;2022-12-18T07:36:58;51.45;;;18.92;;
28483;SDS011;15704;48.834;8.736;2022-12-18T07:39:25;52.10;;;17.40;;
28483;SDS011;15704;48.834;8.736;2022-12-18T07:41:52;59.63;;;19.83;;
28483;SDS011;15704;48.834;8.736;2022-12-18T07:44:40;46.75;;;16.88;;
28483;SDS011;15704;48.834;8.736;2022-12-18T07:47:06;52.92;;;18.27;;
28483;SDS011;15704;48.834;8.736;2022-12-18T07:49:37;52.95;;;17.05;;
28483;SDS011;15704;48.834;8.736;2022-12-18T07:52:04;51.35;;;17.73;;
28483;SDS011;15704;48.834;8.736;2022-12-18T07:54:31;53.10;;;19.40;;
28483;SDS011;15704;48.834;8.736;2022-12-18T07:56:57;48.08;;;18.40;;
28483;SDS011;15704;48.834;8.736;2022-12-18T07:59:25;51.92;;;18.92;;
28483;SDS011;15704;48.834;8.736;2022-12-18T08:01:52;59.17;;;19.00;;
28483;SDS011;15704;48.834;8.736;2022-12-18T08:04:19;53.47;;;19.73;;
28483;SDS011;15704;48.834;8.736;2022-12-18T08:06:45;113.07;;;35.10;;
28483;SDS011;15704;48.834;8.736;2022-12-18T08:09:13;75.05;;;24.20;;
28483;SDS011;15704;48.834;8.736;2022-12-18T08:11:40;93.85;;;28.15;;
28483;SDS011;15704;48.834;8.736;2022-12-18T08:14:07;69.97;;;22.08;;
28483;SDS011;15704;48.834;8.736;2022-12-18T08:16:34;61.85;;;20.13;;
28483;SDS011;15704;48.834;8.736;2022-12-18T08:19:01;93.57;;;31.15;;
28483;SDS011;15704;48.834;8.736;2022-12-18T08:21:29;90.32;;;30.17;;
28483;SDS011;15704;48.834;8.736;2022-12-18T08:24:00;71.13;;;25.98;;
28483;SDS011;15704;48.834;8.736;2022-12-18T08:26:28;51.05;;;19.80;;
28483;SDS011;15704;48.834;8.736;2022-12-18T08:28:57;50.47;;;17.80;;
28483;SDS011;15704;48.834;8.736;2022-12-18T08:31:25;48.92;;;17.83;;
28483;SDS011;15704;48.834;8.736;2022-12-18T08:33:54;74.18;;;22.55;;
28483;SDS011;15704;48.834;8.736;2022-12-18T08:36:22;46.55;;;18.15;;
28483;SDS011;15704;48.834;8.736;2022-12-18T08:38:50;52.55;;;18.60;;
28483;SDS011;15704;48.834;8.736;2022-12-18T08:41:18;80.72;;;23.85;;
28483;SDS011;15704;48.834;8.736;2022-12-18T08:43:45;59.28;;;20.67;;
28483;SDS011;15704;48.834;8.736;2022-12-18T08:46:37;55.45;;;19.27;;
28483;SDS011;15704;48.834;8.736;2022-12-18T08:49:05;64.47;;;20.05;;
28483;SDS011;15704;48.834;8.736;2022-12-18T08:51:33;52.13;;;19.58;;
28483;SDS011;15704;48.834;8.736;2022-12-18T08:54:00;56.85;;;19.23;;
28483;SDS011;15704;48.834;8.736;2022-12-18T08:56:28;127.75;;;36.13;;
28483;SDS011;15704;48.834;8.736;2022-12-18T08:58:56;59.50;;;20.02;;
28483;SDS011;15704;48.834;8.736;2022-12-18T09:01:23;60.65;;;20.92;;
28483;SDS011;15704;48.834;8.736;2022-12-18T09:03:50;57.00;;;20.95;;
28483;SDS011;15704;48.834;8.736;2022-12-18T09:06:17;65.55;;;23.35;;
28483;SDS011;15704;48.834;8.736;2022-12-18T09:08:46;65.97;;;23.50;;
28483;SDS011;15704;48.834;8.736;2022-12-18T09:11:23;57.50;;;21.20;;
28483;SDS011;15704;48.834;8.736;2022-12-18T09:13:52;61.47;;;21.95;;
28483;SDS011;15704;48.834;8.736;2022-12-18T09:16:21;67.32;;;22.92;;
28483;SDS011;15704;48.834;8.736;2022-12-18T09:18:57;59.90;;;20.38;;
28483;SDS011;15704;48.834;8.736;2022-12-18T09:21:28;65.07;;;22.02;;
28483;SDS011;15704;48.834;8.736;2022-12-18T09:24:00;115.60;;;33.95;;
28483;SDS011;15704;48.834;8.736;2022-12-18T09:26:27;56.75;;;21.27;;
28483;SDS011;15704;48.834;8.736;2022-12-18T09:28:54;60.72;;;21.02;;
28483;SDS011;15704;48.834;8.736;2022-12-18T09:31:22;53.83;;;21.85;;
28483;SDS011;15704;48.834;8.736;2022-12-18T09:33:50;69.45;;;23.92;;
28483;SDS011;15704;48.834;8.736;2022-12-18T09:36:17;69.50;;;24.20;;
28483;SDS011;15704;48.834;8.736;2022-12-18T09:38:44;69.00;;;25.63;;
28483;SDS011;15704;48.834;8.736;2022-12-18T09:41:26;58.83;;;20.88;;
28483;SDS011;15704;48.834;8.736;2022-12-18T09:43:58;59.17;;;20.80;;
28483;SDS011;15704;48.834;8.736;2022-12-18T09:46:30;75.93;;;24.98;;
28483;SDS011;15704;48.834;8.736;2022-12-18T09:49:03;65.60;;;22.08;;
28483;SDS011;15704;48.834;8.736;2022-12-18T09:51:36;63.95;;;22.40;;
28483;SDS011;15704;48.834;8.736;2022-12-18T09:54:26;62.05;;;22.10;;
28483;SDS011;15704;48.834;8.736;2022-12-18T09:57:02;55.88;;;20.83;;
28483;SDS011;15704;48.834;8.736;2022-12-18T09:59:37;60.85;;;22.63;;
28483;SDS011;15704;48.834;8.736;2022-12-18T10:02:16;49.22;;;19.65;;
28483;SDS011;15704;48.834;8.736;2022-12-18T10:04:51;50.08;;;20.15;;
28483;SDS011;15704;48.834;8.736;2022-12-18T10:07:31;54.72;;;21.48;;
28483;SDS011;15704;48.834;8.736;2022-12-18T10:13:09;58.75;;;22.52;;
28483;SDS011;15704;48.834;8.736;2022-12-18T10:24:33;46.67;;;20.55;;
28483;SDS011;15704;48.834;8.736;2022-12-18T10:27:21;56.58;;;21.70;;
28483;SDS011;15704;48.834;8.736;2022-12-18T10:29:50;52.72;;;21.13;;
28483;SDS011;15704;48.834;8.736;2022-12-18T10:32:21;51.67;;;20.40;;
28483;SDS011;15704;48.834;8.736;2022-12-18T10:34:53;58.33;;;22.67;;
28483;SDS011;15704;48.834;8.736;2022-12-18T10:37:26;74.50;;;25.48;;
28483;SDS011;15704;48.834;8.736;2022-12-18T10:42:35;59.95;;;24.55;;
28483;SDS011;15704;48.834;8.736;2022-12-18T10:45:08;68.07;;;24.92;;
28483;SDS011;15704;48.834;8.736;2022-12-18T10:47:42;59.08;;;22.15;;
28483;SDS011;15704;48.834;8.736;2022-12-18T10:50:46;60.95;;;24.55;;
28483;SDS011;15704;48.834;8.736;2022-12-18T10:53:26;57.55;;;22.85;;
28483;SDS011;15704;48.834;8.736;2022-12-18T10:55:56;67.45;;;26.27;;
28483;SDS011;15704;48.834;8.736;2022-12-18T10:58:29;70.30;;;28.33;;
28483;SDS011;15704;48.834;8.736;2022-12-18T11:01:03;62.25;;;23.75;;
28483;SDS011;15704;48.834;8.736;2022-12-18T11:03:33;68.93;;;25.38;;
28483;SDS011;15704;48.834;8.736;2022-12-18T11:06:09;63.45;;;23.40;;
28483;SDS011;15704;48.834;8.736;2022-12-18T11:08:41;70.93;;;25.55;;
28483;SDS011;15704;48.834;8.736;2022-12-18T11:11:20;64.20;;;22.85;;
28483;SDS011;15704;48.834;8.736;2022-12-18T11:13:51;58.63;;;23.17;;
28483;SDS011;15704;48.834;8.736;2022-12-18T11:16:21;71.93;;;26.23;;
28483;SDS011;15704;48.834;8.736;2022-12-18T11:18:48;76.95;;;27.48;;
28483;SDS011;15704;48.834;8.736;2022-12-18T11:21:15;55.95;;;22.88;;
28483;SDS011;15704;48.834;8.736;2022-12-18T11:23:52;56.65;;;23.42;;
28483;SDS011;15704;48.834;8.736;2022-12-18T11:26:20;59.50;;;23.73;;
28483;SDS011;15704;48.834;8.736;2022-12-18T11:28:51;69.50;;;26.73;;
28483;SDS011;15704;48.834;8.736;2022-12-18T11:31:33;65.70;;;26.35;;
28483;SDS011;15704;48.834;8.736;2022-12-18T11:36:50;67.03;;;24.90;;
28483;SDS011;15704;48.834;8.736;2022-12-18T11:39:28;64.00;;;24.80;;
28483;SDS011;15704;48.834;8.736;2022-12-18T11:42:09;74.22;;;27.45;;
28483;SDS011;15704;48.834;8.736;2022-12-18T11:50:13;69.38;;;26.17;;
28483;SDS011;15704;48.834;8.736;2022-12-18T11:52:45;62.97;;;25.60;;
28483;SDS011;15704;48.834;8.736;2022-12-18T11:55:31;64.78;;;24.55;;
28483;SDS011;15704;48.834;8.736;2022-12-18T12:00:53;60.67;;;24.38;;
28483;SDS011;15704;48.834;8.736;2022-12-18T12:15:25;59.55;;;24.02;;
28483;SDS011;15704;48.834;8.736;2022-12-18T12:25:55;65.00;;;25.45;;
28483;SDS011;15704;48.834;8.736;2022-12-18T12:31:26;54.85;;;23.02;;
28483;SDS011;15704;48.834;8.736;2022-12-18T12:34:06;62.53;;;25.98;;
28483;SDS011;15704;48.834;8.736;2022-12-18T12:39:43;60.20;;;23.20;;
28483;SDS011;15704;48.834;8.736;2022-12-18T12:42:15;55.70;;;23.13;;
28483;SDS011;15704;48.834;8.736;2022-12-18T12:45:16;60.03;;;23.75;;
28483;SDS011;15704;48.834;8.736;2022-12-18T12:47:49;57.90;;;24.55;;
28483;SDS011;15704;48.834;8.736;2022-12-18T12:50:18;59.10;;;24.65;;
28483;SDS011;15704;48.834;8.736;2022-12-18T12:52:48;60.47;;;24.08;;
28483;SDS011;15704;48.834;8.736;2022-12-18T12:55:25;59.53;;;24.42;;
28483;SDS011;15704;48.834;8.736;2022-12-18T13:00:40;63.30;;;23.17;;
28483;SDS011;15704;48.834;8.736;2022-12-18T13:03:27;61.22;;;25.83;;
28483;SDS011;15704;48.834;8.736;2022-12-18T13:06:02;63.25;;;25.38;;
28483;SDS011;15704;48.834;8.736;2022-12-18T13:08:51;65.15;;;26.08;;
28483;SDS011;15704;48.834;8.736;2022-12-18T13:19:48;58.90;;;23.42;;
28483;SDS011;15704;48.834;8.736;2022-12-18T13:22:23;63.28;;;25.02;;
28483;SDS011;15704;48.834;8.736;2022-12-18T13:24:55;60.38;;;24.15;;
28483;SDS011;15704;48.834;8.736;2022-12-18T13:35:40;68.53;;;25.87;;
28483;SDS011;15704;48.834;8.736;2022-12-18T13:41:01;63.28;;;24.58;;
28483;SDS011;15704;48.834;8.736;2022-12-18T13:43:42;58.97;;;23.00;;
28483;SDS011;15704;48.834;8.736;2022-12-18T13:46:18;64.30;;;25.27;;
28483;SDS011;15704;48.834;8.736;2022-12-18T13:48:50;61.72;;;24.25;;
28483;SDS011;15704;48.834;8.736;2022-12-18T13:51:20;65.18;;;25.48;;
28483;SDS011;15704;48.834;8.736;2022-12-18T13:53:49;61.20;;;23.83;;
28483;SDS011;15704;48.834;8.736;2022-12-18T13:56:17;66.03;;;27.42;;
28483;SDS011;15704;48.834;8.736;2022-12-18T14:01:44;69.50;;;25.85;;
28483;SDS011;15704;48.834;8.736;2022-12-18T14:04:32;63.30;;;26.48;;
28483;SDS011;15704;48.834;8.736;2022-12-18T14:07:05;63.63;;;24.40;;
28483;SDS011;15704;48.834;8.736;2022-12-18T14:09:46;59.83;;;24.30;;
28483;SDS011;15704;48.834;8.736;2022-12-18T14:12:29;59.58;;;24.15;;
28483;SDS011;15704;48.834;8.736;2022-12-18T14:17:53;65.38;;;25.08;;
28483;SDS011;15704;48.834;8.736;2022-12-18T14:20:24;61.58;;;24.77;;
28483;SDS011;15704;48.834;8.736;2022-12-18T14:22:54;62.50;;;24.52;;
28483;SDS011;15704;48.834;8.736;2022-12-18T14:25:24;61.22;;;22.33;;
28483;SDS011;15704;48.834;8.736;2022-12-18T14:30:37;66.57;;;24.15;;
28483;SDS011;15704;48.834;8.736;2022-12-18T14:35:38;60.00;;;24.25;;
28483;SDS011;15704;48.834;8.736;2022-12-18T14:40:42;163.52;;;57.03;;
28483;SDS011;15704;48.834;8.736;2022-12-18T14:43:10;68.45;;;28.80;;
28483;SDS011;15704;48.834;8.736;2022-12-18T14:45:39;111.38;;;38.85;;
28483;SDS011;15704;48.834;8.736;2022-12-18T14:48:18;98.88;;;35.65;;
28483;SDS011;15704;48.834;8.736;2022-12-18T14:51:18;116.28;;;38.13;;
28483;SDS011;15704;48.834;8.736;2022-12-18T14:56:28;71.85;;;28.60;;
28483;SDS011;15704;48.834;8.736;2022-12-18T14:59:01;111.85;;;43.88;;
28483;SDS011;15704;48.834;8.736;2022-12-18T15:04:04;116.13;;;40.97;;
28483;SDS011;15704;48.834;8.736;2022-12-18T15:06:50;81.68;;;32.90;;
28483;SDS011;15704;48.834;8.736;2022-12-18T15:09:30;86.22;;;34.03;;
28483;SDS011;15704;48.834;8.736;2022-12-18T15:11:57;147.90;;;59.20;;
28483;SDS011;15704;48.834;8.736;2022-12-18T15:14:31;87.28;;;34.10;;
28483;SDS011;15704;48.834;8.736;2022-12-18T15:17:02;86.18;;;32.22;;
28483;SDS011;15704;48.834;8.736;2022-12-18T15:19:48;85.93;;;31.73;;
28483;SDS011;15704;48.834;8.736;2022-12-18T15:24:55;75.93;;;28.95;;
28483;SDS011;15704;48.834;8.736;2022-12-18T15:27:25;84.60;;;29.88;;
28483;SDS011;15704;48.834;8.736;2022-12-18T15:32:37;85.38;;;32.28;;
28483;SDS011;15704;48.834;8.736;2022-12-18T15:35:12;63.20;;;22.97;;
28483;SDS011;15704;48.834;8.736;2022-12-18T15:37:40;96.43;;;32.67;;
28483;SDS011;15704;48.834;8.736;2022-12-18T15:40:08;95.40;;;33.25;;
28483;SDS011;15704;48.834;8.736;2022-12-18T15:42:38;199.00;;;65.80;;
28483;SDS011;15704;48.834;8.736;2022-12-18T15:45:34;92.70;;;32.97;;
28483;SDS011;15704;48.834;8.736;2022-12-18T15:48:01;210.77;;;85.97;;
28483;SDS011;15704;48.834;8.736;2022-12-18T15:50:28;90.47;;;35.45;;
28483;SDS011;15704;48.834;8.736;2022-12-18T15:52:56;95.32;;;33.42;;
28483;SDS011;15704;48.834;8.736;2022-12-18T15:55:23;78.85;;;29.08;;
28483;SDS011;15704;48.834;8.736;2022-12-18T15:58:09;85.22;;;31.25;;
28483;SDS011;15704;48.834;8.736;2022-12-18T16:00:38;83.05;;;31.40;;
28483;SDS011;15704;48.834;8.736;2022-12-18T16:03:06;92.18;;;33.33;;
28483;SDS011;15704;48.834;8.736;2022-12-18T16:05:33;114.55;;;37.60;;
28483;SDS011;15704;48.834;8.736;2022-12-18T16:08:00;88.00;;;30.58;;
28483;SDS011;15704;48.834;8.736;2022-12-18T16:10:27;89.78;;;34.17;;
28483;SDS011;15704;48.834;8.736;2022-12-18T16:12:54;95.30;;;30.70;;
28483;SDS011;15704;48.834;8.736;2022-12-18T16:15:21;82.50;;;31.48;;
28483;SDS011;15704;48.834;8.736;2022-12-18T16:17:50;90.05;;;31.27;;
28483;SDS011;15704;48.834;8.736;2022-12-18T16:20:19;91.40;;;34.30;;
28483;SDS011;15704;48.834;8.736;2022-12-18T16:22:48;96.38;;;33.47;;
28483;SDS011;15704;48.834;8.736;2022-12-18T16:28:08;80.63;;;30.25;;
28483;SDS011;15704;48.834;8.736;2022-12-18T16:30:35;85.63;;;31.00;;
28483;SDS011;15704;48.834;8.736;2022-12-18T16:33:04;79.30;;;30.10;;
28483;SDS011;15704;48.834;8.736;2022-12-18T16:35:32;85.13;;;30.15;;
28483;SDS011;15704;48.834;8.736;2022-12-18T16:37:59;83.15;;;29.92;;
28483;SDS011;15704;48.834;8.736;2022-12-18T16:40:26;81.63;;;28.65;;
28483;SDS011;15704;48.834;8.736;2022-12-18T16:42:53;91.95;;;32.63;;
28483;SDS011;15704;48.834;8.736;2022-12-18T16:45:19;83.10;;;28.20;;
28483;SDS011;15704;48.834;8.736;2022-12-18T16:47:46;86.55;;;30.50;;
28483;SDS011;15704;48.834;8.736;2022-12-18T16:50:13;87.22;;;29.40;;
28483;SDS011;15704;48.834;8.736;2022-12-18T16:52:40;80.15;;;29.67;;